EHRD

Rotterdam Airport

Rotterdam, The Netherlands
METAR EHRD 162355Z AUTO 26005KT 9999 FEW015CB 02/01 Q1018 TEMPO 6000 SHRAGS SCT020CB
Observed Flight Rules
Dec-16 @ 23:55 UTC (28 minutes ago) Visual Flight Rules
Wind Visibility Clouds
260° at 5 knots 10,000+ meters
  • Few at 1,500' AGL
Temperatures Readings
Current 2°C / 36°F
Dewpoint 1°C / 34°F
Humidity 93%
Altimeter 30.06" Hg
Pressure 1018 hPa
Elevation -5
METAR EHRD 162355Z AUTO 26005KT 9999 FEW015CB 02/01 Q1018 TEMPO 6000 SHRAGS SCT020CB
Observed Flight Rules
Dec-16 @ 23:55 UTC
(28 minutes ago)
VFR
Wind Visibility
260° at 5 knots 10,000+ meters
Clouds
  • Few at 1,500' AGL
Temperature Dewpoint
2°C / 36°F 1°C / 34°F
Humidity Altimeter Pressure
93% 30.06" Hg 1018 hPa